createdAt,value
2022-10-15T00:00:56.873Z,4.23
2022-10-15T00:03:25.108Z,3.43
2022-10-15T00:05:53.305Z,3.90
2022-10-15T00:08:21.455Z,4.40
2022-10-15T00:10:49.758Z,3.80
2022-10-15T00:13:17.913Z,4.30
2022-10-15T00:15:47.729Z,4.10
2022-10-15T00:18:15.992Z,4.13
2022-10-15T00:20:44.152Z,4.30
2022-10-15T00:23:12.330Z,4.17
2022-10-15T00:25:42.188Z,4.07
2022-10-15T00:28:10.403Z,4.10
2022-10-15T00:30:38.566Z,4.13
2022-10-15T00:33:08.096Z,4.30
2022-10-15T00:35:36.247Z,4.57
2022-10-15T00:38:04.485Z,4.57
2022-10-15T00:40:32.709Z,3.90
2022-10-15T00:43:00.880Z,3.73
2022-10-15T00:45:29.164Z,4.10
2022-10-15T00:47:57.706Z,4.77
2022-10-15T00:50:28.011Z,4.80
2022-10-15T00:53:01.165Z,4.70
2022-10-15T00:55:31.339Z,4.57
2022-10-15T00:58:00.761Z,4.00
2022-10-15T01:00:29.204Z,4.77
2022-10-15T01:02:57.400Z,3.97
2022-10-15T01:05:27.015Z,4.80
2022-10-15T01:07:55.168Z,4.97
2022-10-15T01:10:23.695Z,4.47
2022-10-15T01:12:58.997Z,5.00
2022-10-15T01:15:28.016Z,5.47
2022-10-15T01:17:58.683Z,4.20
2022-10-15T01:20:46.505Z,4.30
2022-10-15T01:23:26.089Z,5.03
2022-10-15T01:25:58.777Z,4.87
2022-10-15T01:28:37.324Z,4.40
2022-10-15T01:31:11.613Z,4.00
2022-10-15T01:33:43.794Z,4.40
2022-10-15T01:36:16.578Z,4.70
2022-10-15T01:38:51.309Z,4.93
2022-10-15T01:41:22.860Z,5.23
2022-10-15T01:43:53.638Z,5.90
2022-10-15T01:46:25.705Z,6.00
2022-10-15T01:48:56.036Z,4.03
2022-10-15T01:51:25.041Z,5.27
2022-10-15T01:53:53.995Z,4.70
2022-10-15T01:56:23.362Z,6.80
2022-10-15T01:58:52.373Z,5.60
2022-10-15T02:01:20.541Z,8.10
2022-10-15T02:03:51.829Z,7.67
2022-10-15T02:06:23.314Z,7.20
2022-10-15T02:08:58.001Z,7.43
2022-10-15T02:11:26.361Z,8.17
2022-10-15T02:13:58.705Z,8.13
2022-10-15T02:16:29.349Z,7.03
2022-10-15T02:19:02.268Z,9.00
2022-10-15T02:21:33.175Z,9.97
2022-10-15T02:24:08.041Z,7.30
2022-10-15T02:26:36.335Z,8.60
2022-10-15T02:29:07.111Z,7.70
2022-10-15T02:31:36.351Z,7.57
2022-10-15T02:34:08.126Z,6.30
2022-10-15T02:36:36.896Z,7.10
2022-10-15T02:39:05.507Z,8.90
2022-10-15T02:41:35.702Z,8.33
2022-10-15T02:44:03.957Z,11.20
2022-10-15T02:46:32.186Z,11.47
2022-10-15T02:49:00.397Z,10.53
2022-10-15T02:51:32.849Z,11.67
2022-10-15T02:54:01.281Z,12.80
2022-10-15T02:58:58.760Z,11.90
2022-10-15T03:01:27.002Z,12.50
2022-10-15T03:03:55.236Z,12.33
2022-10-15T03:06:23.372Z,12.40
2022-10-15T03:08:52.995Z,13.90
2022-10-15T03:11:21.186Z,14.33
2022-10-15T03:13:49.392Z,11.33
2022-10-15T03:16:17.782Z,16.10
2022-10-15T03:18:45.970Z,14.17
2022-10-15T03:21:14.234Z,13.27
2022-10-15T03:23:42.441Z,14.27
2022-10-15T03:26:11.941Z,12.23
2022-10-15T03:28:40.175Z,10.40
2022-10-15T03:31:08.463Z,12.77
2022-10-15T03:33:36.678Z,13.83
2022-10-15T03:36:04.818Z,13.60
2022-10-15T03:38:33.000Z,13.13
2022-10-15T03:41:01.188Z,13.13
2022-10-15T03:43:31.056Z,14.20
2022-10-15T03:46:03.201Z,13.70
2022-10-15T03:48:31.514Z,14.10
2022-10-15T03:50:59.713Z,12.60
2022-10-15T03:53:27.908Z,15.17
2022-10-15T03:55:56.082Z,15.70
2022-10-15T03:58:24.262Z,14.77
2022-10-15T04:00:53.981Z,15.70
2022-10-15T04:03:22.165Z,17.53
2022-10-15T04:05:54.100Z,18.43
2022-10-15T04:08:23.465Z,18.27
2022-10-15T04:10:52.604Z,19.73
2022-10-15T04:13:20.813Z,18.83
2022-10-15T04:15:48.996Z,19.30
2022-10-15T04:18:22.540Z,19.57
2022-10-15T04:20:50.732Z,15.77
2022-10-15T04:23:19.304Z,21.03
2022-10-15T04:25:47.715Z,20.87
2022-10-15T04:28:16.108Z,17.10
2022-10-15T04:30:44.457Z,20.30
2022-10-15T04:33:12.630Z,19.30
2022-10-15T04:35:42.145Z,19.57
2022-10-15T04:38:10.321Z,21.90
2022-10-15T04:40:39.273Z,21.80
2022-10-15T04:43:07.446Z,22.23
2022-10-15T04:45:35.613Z,16.23
2022-10-15T04:48:03.789Z,21.20
2022-10-15T04:50:31.967Z,20.63
2022-10-15T04:53:02.365Z,18.07
2022-10-15T04:55:30.521Z,18.73
2022-10-15T04:57:58.728Z,17.60
2022-10-15T05:00:26.876Z,17.50
2022-10-15T05:02:55.119Z,16.50
2022-10-15T05:05:23.331Z,17.40
2022-10-15T05:07:51.486Z,16.20
2022-10-15T05:10:21.013Z,14.90
2022-10-15T05:12:51.496Z,14.80
2022-10-15T05:15:22.387Z,14.03
2022-10-15T05:17:50.618Z,12.40
2022-10-15T05:20:18.973Z,14.47
2022-10-15T05:22:47.129Z,11.93
2022-10-15T05:25:15.392Z,13.60
2022-10-15T05:27:45.021Z,13.70
2022-10-15T05:30:13.509Z,11.73
2022-10-15T05:32:41.827Z,11.17
2022-10-15T05:35:10.479Z,11.27
2022-10-15T05:37:38.664Z,10.57
2022-10-15T05:40:07.418Z,9.60
2022-10-15T05:42:35.610Z,8.80
2022-10-15T05:45:05.329Z,8.77
2022-10-15T05:47:33.482Z,10.10
2022-10-15T05:50:02.028Z,9.40
2022-10-15T05:52:30.232Z,9.80
2022-10-15T05:54:59.440Z,9.00
2022-10-15T05:57:27.673Z,7.37
2022-10-15T05:59:55.821Z,7.10
2022-10-15T06:02:25.541Z,6.23
2022-10-15T06:04:54.211Z,7.57
2022-10-15T06:07:22.735Z,6.70
2022-10-15T06:09:51.717Z,6.90
2022-10-15T06:12:19.950Z,7.30
2022-10-15T06:14:48.145Z,6.97
2022-10-15T06:17:16.357Z,6.40
2022-10-15T06:19:45.871Z,6.30
2022-10-15T06:22:14.067Z,6.77
2022-10-15T06:24:42.251Z,5.53
2022-10-15T06:27:11.767Z,6.13
2022-10-15T06:29:39.994Z,4.70
2022-10-15T06:32:10.652Z,5.40
2022-10-15T06:34:38.898Z,4.70
2022-10-15T06:37:08.408Z,4.50
2022-10-15T06:39:36.588Z,4.40
2022-10-15T06:42:04.821Z,4.10
2022-10-15T06:44:33.022Z,3.83
2022-10-15T06:47:01.214Z,3.40
2022-10-15T06:49:29.392Z,3.80
2022-10-15T06:52:02.580Z,3.50
2022-10-15T06:54:33.460Z,3.63
2022-10-15T06:57:01.641Z,3.70
2022-10-15T06:59:29.872Z,3.50
2022-10-15T07:01:58.042Z,3.63
2022-10-15T07:04:26.278Z,4.87
2022-10-15T07:06:54.437Z,2.50
2022-10-15T07:09:22.777Z,2.23
2022-10-15T07:11:52.302Z,2.50
2022-10-15T07:14:20.503Z,1.93
2022-10-15T07:16:48.712Z,1.37
2022-10-15T07:19:17.078Z,1.63
2022-10-15T07:21:45.242Z,1.00
2022-10-15T07:24:13.437Z,1.27
2022-10-15T07:26:41.625Z,1.50
2022-10-15T07:29:11.315Z,1.37
2022-10-15T07:31:39.664Z,1.47
2022-10-15T07:34:08.366Z,1.10
2022-10-15T07:36:36.536Z,0.87
2022-10-15T07:39:04.733Z,1.00
2022-10-15T07:41:32.919Z,0.83
2022-10-15T07:44:01.136Z,0.63
2022-10-15T07:46:30.734Z,1.10
2022-10-15T07:48:58.997Z,0.80
2022-10-15T07:51:27.275Z,0.80
2022-10-15T07:53:55.568Z,1.10
2022-10-15T07:56:23.741Z,0.73
2022-10-15T07:58:52.637Z,1.10
2022-10-15T08:01:21.570Z,1.33
2022-10-15T08:03:51.110Z,1.17
2022-10-15T08:06:19.281Z,0.90
2022-10-15T08:08:47.741Z,1.00
2022-10-15T08:11:17.334Z,0.73
2022-10-15T08:13:47.086Z,1.40
2022-10-15T08:16:16.482Z,0.77
2022-10-15T08:18:44.788Z,1.00
2022-10-15T08:21:14.403Z,1.10
2022-10-15T08:23:42.678Z,0.90
2022-10-15T08:26:10.833Z,1.00
2022-10-15T08:28:39.335Z,1.10
2022-10-15T08:31:07.646Z,0.80
2022-10-15T08:33:36.236Z,1.27
2022-10-15T08:36:06.324Z,0.83
2022-10-15T08:38:36.279Z,1.10
2022-10-15T08:41:07.220Z,0.97
2022-10-15T08:43:37.229Z,1.20
2022-10-15T08:46:07.046Z,1.03
2022-10-15T08:48:40.225Z,1.10
2022-10-15T08:51:12.140Z,1.10
2022-10-15T08:53:45.027Z,1.00
2022-10-15T08:56:16.716Z,0.90
2022-10-15T08:58:47.768Z,1.20
2022-10-15T09:01:19.629Z,1.20
2022-10-15T09:03:52.328Z,1.20
2022-10-15T09:06:23.642Z,1.30
2022-10-15T09:08:58.747Z,1.13
2022-10-15T09:11:36.518Z,1.03
2022-10-15T09:14:06.318Z,1.13
2022-10-15T09:16:36.810Z,1.00
2022-10-15T09:19:06.477Z,0.97
2022-10-15T09:21:37.109Z,1.17
2022-10-15T09:24:07.016Z,0.90
2022-10-15T09:26:50.316Z,0.83
2022-10-15T09:29:23.067Z,0.90
2022-10-15T09:31:53.533Z,0.90
2022-10-15T09:34:24.622Z,0.93
2022-10-15T09:36:54.777Z,1.20
2022-10-15T09:39:36.097Z,0.90
2022-10-15T09:42:08.389Z,0.90
2022-10-15T09:44:38.432Z,0.70
2022-10-15T09:47:16.349Z,1.00
2022-10-15T09:49:44.542Z,0.90
2022-10-15T09:52:15.085Z,0.90
2022-10-15T09:54:47.294Z,0.70
2022-10-15T09:57:16.799Z,0.90
2022-10-15T09:59:54.233Z,0.70
2022-10-15T10:02:24.197Z,0.70
2022-10-15T10:04:52.899Z,0.80
2022-10-15T10:07:34.409Z,0.60
2022-10-15T10:10:05.706Z,0.60
2022-10-15T10:12:35.362Z,0.70
2022-10-15T10:15:05.708Z,0.57
2022-10-15T10:17:34.504Z,0.70
2022-10-15T10:20:12.420Z,0.70
2022-10-15T10:22:46.514Z,0.80
2022-10-15T10:25:35.220Z,0.60
2022-10-15T10:28:08.614Z,0.60
2022-10-15T10:30:37.981Z,0.50
2022-10-15T10:33:06.472Z,0.50
2022-10-15T10:35:37.650Z,0.60
2022-10-15T10:38:05.829Z,0.50
2022-10-15T10:40:36.921Z,0.50
2022-10-15T10:43:12.367Z,0.60
2022-10-15T10:45:40.657Z,0.63
2022-10-15T10:48:21.733Z,0.60
2022-10-15T10:50:50.044Z,0.50
2022-10-15T10:53:23.008Z,0.70
2022-10-15T10:55:53.605Z,0.40
2022-10-15T10:58:26.325Z,0.60
2022-10-15T11:00:56.621Z,0.57
2022-10-15T11:03:30.760Z,0.70
2022-10-15T11:06:04.302Z,0.80
2022-10-15T11:08:38.334Z,0.60
2022-10-15T11:11:11.692Z,0.70
2022-10-15T11:13:45.423Z,0.60
2022-10-15T11:16:17.603Z,0.60
2022-10-15T11:19:19.047Z,0.50
2022-10-15T11:21:53.486Z,0.70
2022-10-15T11:24:23.742Z,0.70
2022-10-15T11:27:12.816Z,0.70
2022-10-15T11:29:43.717Z,0.80
2022-10-15T11:32:25.566Z,0.80
2022-10-15T11:35:05.357Z,1.00
2022-10-15T11:37:40.308Z,0.70
2022-10-15T11:40:16.005Z,0.80
2022-10-15T11:42:49.061Z,0.80
2022-10-15T11:45:34.614Z,1.30
2022-10-15T11:48:05.629Z,1.00
2022-10-15T11:50:36.865Z,0.90
2022-10-15T11:53:20.348Z,1.40
2022-10-15T11:55:51.479Z,0.80
2022-10-15T11:58:28.503Z,1.17
2022-10-15T12:00:58.238Z,1.07
2022-10-15T12:03:27.900Z,1.00
2022-10-15T12:05:58.006Z,1.00
2022-10-15T12:08:27.328Z,0.70
2022-10-15T12:11:01.694Z,0.83
2022-10-15T12:13:36.245Z,0.93
2022-10-15T12:16:10.406Z,0.90
2022-10-15T12:18:40.749Z,0.83
2022-10-15T12:21:23.797Z,0.70
2022-10-15T12:23:52.013Z,0.70
2022-10-15T12:26:33.442Z,1.00
2022-10-15T12:29:04.468Z,0.80
2022-10-15T12:31:48.707Z,1.30
2022-10-15T12:34:34.304Z,0.67
2022-10-15T12:37:06.523Z,0.80
2022-10-15T12:40:04.293Z,0.73
2022-10-15T12:42:24.476Z,0.83
2022-10-15T12:44:54.398Z,1.00
2022-10-15T12:47:40.548Z,0.60
2022-10-15T12:50:18.526Z,0.93
2022-10-15T12:52:54.642Z,0.67
2022-10-15T12:55:30.535Z,1.03
2022-10-15T12:58:03.525Z,0.90
2022-10-15T13:00:34.993Z,1.00
2022-10-15T13:03:21.680Z,0.93
2022-10-15T13:05:53.236Z,1.00
2022-10-15T13:08:24.036Z,0.80
2022-10-15T13:10:54.157Z,1.10
2022-10-15T13:13:24.282Z,1.13
2022-10-15T13:15:56.918Z,1.30
2022-10-15T13:18:26.203Z,0.90
2022-10-15T13:20:56.351Z,0.90
2022-10-15T13:23:31.610Z,0.90
2022-10-15T13:26:13.228Z,0.80
2022-10-15T13:28:42.504Z,0.90
2022-10-15T13:31:17.657Z,0.67
2022-10-15T13:33:46.910Z,0.80
2022-10-15T13:36:20.217Z,0.60
2022-10-15T13:38:53.219Z,0.70
2022-10-15T13:41:26.177Z,0.87
2022-10-15T13:43:58.614Z,0.80
2022-10-15T13:46:28.981Z,0.60
2022-10-15T13:49:01.626Z,1.00
2022-10-15T13:51:33.688Z,1.10
2022-10-15T13:54:02.946Z,1.30
2022-10-15T13:56:32.285Z,1.70
2022-10-15T13:59:01.389Z,1.20
2022-10-15T14:01:33.091Z,1.10
2022-10-15T14:04:01.889Z,1.00
2022-10-15T14:06:30.792Z,1.20
2022-10-15T14:09:00.061Z,1.03
2022-10-15T14:11:29.709Z,1.17
2022-10-15T14:13:58.498Z,1.00
2022-10-15T14:16:29.554Z,0.93
2022-10-15T14:19:00.983Z,1.13
2022-10-15T14:21:32.371Z,1.40
2022-10-15T14:24:07.889Z,1.30
2022-10-15T14:26:36.827Z,1.30
2022-10-15T14:29:05.101Z,1.43
2022-10-15T14:31:34.816Z,1.00
2022-10-15T14:34:04.596Z,0.90
2022-10-15T14:36:33.383Z,1.00
2022-10-15T14:39:26.955Z,0.90
2022-10-15T14:41:58.711Z,1.00
2022-10-15T14:44:27.153Z,0.70
2022-10-15T14:47:04.557Z,1.07
2022-10-15T14:49:35.738Z,0.90
2022-10-15T14:52:06.100Z,0.80
2022-10-15T14:54:36.721Z,1.30
2022-10-15T14:57:05.314Z,0.83
2022-10-15T14:59:35.050Z,1.03
2022-10-15T15:02:03.837Z,1.20
2022-10-15T15:04:38.054Z,1.30
2022-10-15T15:07:11.961Z,1.20
2022-10-15T15:09:41.798Z,1.03
2022-10-15T15:12:24.108Z,1.37
2022-10-15T15:14:55.286Z,1.40
2022-10-15T15:17:24.338Z,1.53
2022-10-15T15:19:54.514Z,1.80
2022-10-15T15:22:25.567Z,1.53
2022-10-15T15:24:53.924Z,1.30
2022-10-15T15:27:27.118Z,2.17
2022-10-15T15:29:55.625Z,1.70
2022-10-15T15:32:24.569Z,1.60
2022-10-15T15:34:54.970Z,1.67
2022-10-15T15:37:24.289Z,2.30
2022-10-15T15:39:52.557Z,3.50
2022-10-15T15:42:22.852Z,2.27
2022-10-15T15:44:51.242Z,2.33
2022-10-15T15:47:19.547Z,1.83
2022-10-15T15:49:47.748Z,2.30
2022-10-15T15:52:18.882Z,2.00
2022-10-15T15:54:47.165Z,1.73
2022-10-15T15:57:15.564Z,1.43
2022-10-15T15:59:43.776Z,1.80
2022-10-15T16:02:13.168Z,1.50
2022-10-15T16:04:41.468Z,1.60
2022-10-15T16:07:13.157Z,1.37
2022-10-15T16:09:44.379Z,1.37
2022-10-15T16:12:12.592Z,1.60
2022-10-15T16:14:40.798Z,1.37
2022-10-15T16:17:09.014Z,1.53
2022-10-15T16:19:37.223Z,1.70
2022-10-15T16:22:05.789Z,1.50
2022-10-15T16:24:35.701Z,1.70
2022-10-15T16:27:05.286Z,1.83
2022-10-15T16:29:33.486Z,2.37
2022-10-15T16:32:01.653Z,1.70
2022-10-15T16:34:30.116Z,2.30
2022-10-15T16:36:58.309Z,2.60
2022-10-15T16:39:26.850Z,2.43
2022-10-15T16:41:56.139Z,2.23
2022-10-15T16:44:25.713Z,2.67
2022-10-15T16:46:53.853Z,2.90
2022-10-15T16:49:23.195Z,3.07
2022-10-15T16:51:51.365Z,2.50
2022-10-15T16:54:20.001Z,2.97
2022-10-15T16:56:51.989Z,3.10
2022-10-15T16:59:22.912Z,3.40
2022-10-15T17:01:52.502Z,3.83
2022-10-15T17:04:20.725Z,4.13
2022-10-15T17:06:48.926Z,4.30
2022-10-15T17:09:17.354Z,4.20
2022-10-15T17:11:46.857Z,3.60
2022-10-15T17:14:16.094Z,3.73
2022-10-15T17:16:45.117Z,4.87
2022-10-15T17:19:15.549Z,4.33
2022-10-15T17:21:46.931Z,3.60
2022-10-15T17:24:16.495Z,3.90
2022-10-15T17:26:45.488Z,3.83
2022-10-15T17:29:16.209Z,4.10
2022-10-15T17:31:44.381Z,4.67
2022-10-15T17:34:13.522Z,3.70
2022-10-15T17:36:45.376Z,4.90
2022-10-15T17:39:14.284Z,5.37
2022-10-15T17:41:42.980Z,5.60
2022-10-15T17:44:11.678Z,5.07
2022-10-15T17:46:40.164Z,4.87
2022-10-15T17:49:09.613Z,5.63
2022-10-15T17:51:37.935Z,4.47
2022-10-15T17:54:07.484Z,5.20
2022-10-15T17:56:36.286Z,4.87
2022-10-15T17:59:05.453Z,5.30
2022-10-15T18:01:56.595Z,4.40
2022-10-15T18:04:24.176Z,4.57
2022-10-15T18:06:52.452Z,4.43
2022-10-15T18:09:22.100Z,4.33
2022-10-15T18:11:50.474Z,4.90
2022-10-15T18:16:46.946Z,4.17
2022-10-15T18:19:15.171Z,4.20
2022-10-15T18:21:47.031Z,4.93
2022-10-15T18:24:19.997Z,5.33
2022-10-15T18:26:49.575Z,5.00
2022-10-15T18:29:17.760Z,4.40
2022-10-15T18:31:46.628Z,5.60
2022-10-15T18:34:15.143Z,5.70
2022-10-15T18:36:43.667Z,7.10
2022-10-15T18:39:12.087Z,6.90
2022-10-15T18:41:40.965Z,6.10
2022-10-15T18:44:15.772Z,5.43
2022-10-15T18:46:44.921Z,4.70
2022-10-15T18:49:13.855Z,3.67
2022-10-15T18:51:42.121Z,3.57
2022-10-15T18:54:13.415Z,3.20
2022-10-15T18:56:41.625Z,3.20
2022-10-15T18:59:11.261Z,3.50
2022-10-15T19:01:41.663Z,2.93
2022-10-15T19:04:11.081Z,2.73
2022-10-15T19:06:40.005Z,3.13
2022-10-15T19:09:09.022Z,2.60
2022-10-15T19:11:37.826Z,2.50
2022-10-15T19:14:06.158Z,2.00
2022-10-15T19:16:36.277Z,2.67
2022-10-15T19:19:05.193Z,2.40
2022-10-15T19:21:33.407Z,2.57
2022-10-15T19:24:01.592Z,2.70
2022-10-15T19:26:29.817Z,2.80
2022-10-15T19:28:58.359Z,2.97
2022-10-15T19:31:27.725Z,2.37
2022-10-15T19:33:59.163Z,3.83
2022-10-15T19:36:28.933Z,2.40
2022-10-15T19:38:57.273Z,2.77
2022-10-15T19:41:25.511Z,2.33
2022-10-15T19:43:54.049Z,2.53
2022-10-15T19:46:22.250Z,2.00
2022-10-15T19:48:50.480Z,1.93
2022-10-15T19:51:20.024Z,2.40
2022-10-15T19:53:48.177Z,2.77
2022-10-15T19:56:16.349Z,2.17
2022-10-15T19:58:45.720Z,2.70
2022-10-15T20:01:14.072Z,2.10
2022-10-15T20:03:42.687Z,2.17
2022-10-15T20:06:10.933Z,2.57
2022-10-15T20:08:40.689Z,2.87
2022-10-15T20:11:09.633Z,2.60
2022-10-15T20:13:40.889Z,3.40
2022-10-15T20:16:10.364Z,2.57
2022-10-15T20:18:38.858Z,2.50
2022-10-15T20:21:10.744Z,3.37
2022-10-15T20:23:39.642Z,2.80
2022-10-15T20:26:10.587Z,3.80
2022-10-15T20:28:39.502Z,2.93
2022-10-15T20:31:09.331Z,2.70
2022-10-15T20:33:37.923Z,3.10
2022-10-15T20:36:06.995Z,3.13
2022-10-15T20:38:35.814Z,3.50
2022-10-15T20:41:09.249Z,3.10
2022-10-15T20:43:37.454Z,2.60
2022-10-15T20:46:06.132Z,3.60
2022-10-15T20:48:34.728Z,3.83
2022-10-15T20:51:02.960Z,3.20
2022-10-15T20:53:31.931Z,4.10
2022-10-15T20:56:01.239Z,3.47
2022-10-15T20:58:30.877Z,3.50
2022-10-15T21:00:59.356Z,3.20
2022-10-15T21:03:29.806Z,3.20
2022-10-15T21:05:58.010Z,3.10
2022-10-15T21:08:27.222Z,3.10
2022-10-15T21:10:55.422Z,2.90
2022-10-15T21:13:24.233Z,3.67
2022-10-15T21:15:58.314Z,3.00
2022-10-15T21:18:26.917Z,2.53
2022-10-15T21:20:55.215Z,2.40
2022-10-15T21:23:23.414Z,3.37
2022-10-15T21:25:51.950Z,2.97
2022-10-15T21:28:20.165Z,2.83
2022-10-15T21:30:48.385Z,2.70
2022-10-15T21:33:17.943Z,1.77
2022-10-15T21:35:46.153Z,3.00
2022-10-15T21:38:14.300Z,2.40
2022-10-15T21:40:42.454Z,2.50
2022-10-15T21:43:10.629Z,3.50
2022-10-15T21:45:38.807Z,2.40
2022-10-15T21:48:07.291Z,2.80
2022-10-15T21:50:36.862Z,3.13
2022-10-15T21:53:05.221Z,2.30
2022-10-15T21:55:33.707Z,2.10
2022-10-15T21:58:01.866Z,2.80
2022-10-15T22:00:30.068Z,2.40
2022-10-15T22:02:58.239Z,2.70
2022-10-15T22:05:29.433Z,2.17
2022-10-15T22:07:58.921Z,2.40
2022-10-15T22:10:27.097Z,1.63
2022-10-15T22:12:55.286Z,2.50
2022-10-15T22:15:23.503Z,2.20
2022-10-15T22:17:51.703Z,2.23
2022-10-15T22:20:23.624Z,2.10
2022-10-15T22:22:52.147Z,2.70
2022-10-15T22:25:21.685Z,2.17
2022-10-15T22:27:49.857Z,2.73
2022-10-15T22:30:18.063Z,1.93
2022-10-15T22:32:46.230Z,2.27
2022-10-15T22:35:14.492Z,2.03
2022-10-15T22:37:42.671Z,2.40
2022-10-15T22:40:12.236Z,1.80
2022-10-15T22:42:41.775Z,2.33
2022-10-15T22:45:10.314Z,2.00
2022-10-15T22:47:38.528Z,2.10
2022-10-15T22:50:07.005Z,1.90
2022-10-15T22:52:35.173Z,2.00
2022-10-15T22:55:03.378Z,2.00
2022-10-15T22:57:31.546Z,2.40
2022-10-15T23:00:01.104Z,2.10
2022-10-15T23:02:29.299Z,1.70
2022-10-15T23:04:57.508Z,2.30
2022-10-15T23:07:25.699Z,2.17
2022-10-15T23:09:53.921Z,2.43
2022-10-15T23:12:22.704Z,2.03
2022-10-15T23:14:51.183Z,2.10
2022-10-15T23:17:20.745Z,2.03
2022-10-15T23:19:50.167Z,2.47
2022-10-15T23:22:18.342Z,2.77
2022-10-15T23:24:46.549Z,2.43
2022-10-15T23:27:14.721Z,2.30
2022-10-15T23:29:42.921Z,2.90
2022-10-15T23:32:11.433Z,2.67
2022-10-15T23:34:41.001Z,2.20
2022-10-15T23:37:09.187Z,2.73
2022-10-15T23:39:37.369Z,1.97
2022-10-15T23:42:05.589Z,2.73
2022-10-15T23:44:33.819Z,3.07
2022-10-15T23:47:02.100Z,2.50
2022-10-15T23:49:30.260Z,2.50
2022-10-15T23:51:59.810Z,2.13
2022-10-15T23:54:28.018Z,1.60
2022-10-15T23:56:56.177Z,2.10
2022-10-15T23:59:24.451Z,2.40
